createdAt,value
2023-06-07T00:00:09.770Z,7.63
2023-06-07T00:02:43.627Z,8.50
2023-06-07T00:05:14.125Z,7.63
2023-06-07T00:07:42.184Z,7.87
2023-06-07T00:10:10.337Z,8.80
2023-06-07T00:12:39.536Z,9.03
2023-06-07T00:15:09.017Z,9.00
2023-06-07T00:17:38.788Z,9.17
2023-06-07T00:20:09.979Z,9.37
2023-06-07T00:22:38.466Z,9.10
2023-06-07T00:25:07.019Z,8.87
2023-06-07T00:27:34.736Z,9.20
2023-06-07T00:30:05.029Z,9.60
2023-06-07T00:32:33.321Z,9.30
2023-06-07T00:35:01.038Z,9.50
2023-06-07T00:37:28.582Z,9.23
2023-06-07T00:39:56.111Z,9.10
2023-06-07T00:42:23.759Z,9.53
2023-06-07T00:44:51.549Z,9.57
2023-06-07T00:47:20.574Z,9.33
2023-06-07T00:49:49.532Z,10.03
2023-06-07T00:52:17.182Z,10.00
2023-06-07T00:54:44.738Z,10.10
2023-06-07T00:57:12.684Z,10.30
2023-06-07T00:59:40.274Z,10.87
2023-06-07T01:02:07.936Z,9.77
2023-06-07T01:04:41.681Z,10.40
2023-06-07T01:07:09.576Z,9.17
2023-06-07T01:09:37.675Z,10.83
2023-06-07T01:12:07.741Z,10.43
2023-06-07T01:14:35.588Z,10.43
2023-06-07T01:17:04.126Z,10.60
2023-06-07T01:19:33.307Z,10.63
2023-06-07T01:22:05.141Z,11.43
2023-06-07T01:24:36.708Z,11.00
2023-06-07T01:27:05.437Z,12.33
2023-06-07T01:29:33.134Z,11.10
2023-06-07T01:32:04.393Z,11.80
2023-06-07T01:34:32.263Z,12.67
2023-06-07T01:36:59.864Z,11.93
2023-06-07T01:39:28.727Z,12.87
2023-06-07T01:41:58.461Z,11.57
2023-06-07T01:44:26.435Z,11.90
2023-06-07T01:46:54.033Z,11.70
2023-06-07T01:49:21.566Z,11.73
2023-06-07T01:51:49.138Z,12.93
2023-06-07T01:54:17.403Z,12.60
2023-06-07T01:56:49.792Z,12.40
2023-06-07T01:59:23.749Z,12.63
2023-06-07T02:01:57.559Z,12.90
2023-06-07T02:04:27.531Z,12.90
2023-06-07T02:06:57.093Z,12.60
2023-06-07T02:09:25.428Z,14.03
2023-06-07T02:11:53.688Z,12.67
2023-06-07T02:14:22.794Z,13.63
2023-06-07T02:16:50.386Z,12.53
2023-06-07T02:19:18.008Z,14.17
2023-06-07T02:21:45.794Z,13.37
2023-06-07T02:24:13.589Z,14.03
2023-06-07T02:26:41.434Z,14.33
2023-06-07T02:29:09.931Z,14.93
2023-06-07T02:31:39.010Z,14.57
2023-06-07T02:34:06.624Z,13.60
2023-06-07T02:36:34.503Z,13.67
2023-06-07T02:39:02.320Z,12.77
2023-06-07T02:41:30.571Z,13.93
2023-06-07T02:43:58.132Z,14.13
2023-06-07T02:46:25.757Z,14.33
2023-06-07T02:48:54.670Z,13.63
2023-06-07T02:51:22.260Z,14.77
2023-06-07T02:53:50.331Z,14.10
2023-06-07T02:56:18.823Z,14.63
2023-06-07T02:58:46.343Z,13.93
2023-06-07T03:01:15.308Z,13.10
2023-06-07T03:03:44.164Z,12.80
2023-06-07T03:06:13.167Z,14.90
2023-06-07T03:08:40.737Z,15.17
2023-06-07T03:11:08.323Z,14.00
2023-06-07T03:13:35.849Z,14.83
2023-06-07T03:16:03.424Z,14.40
2023-06-07T03:18:32.195Z,14.13
2023-06-07T03:20:59.743Z,13.83
2023-06-07T03:23:30.029Z,14.37
2023-06-07T03:25:59.908Z,14.17
2023-06-07T03:28:27.539Z,14.93
2023-06-07T03:30:55.179Z,14.30
2023-06-07T03:33:22.744Z,14.97
2023-06-07T03:35:50.509Z,15.30
2023-06-07T03:38:18.055Z,14.40
2023-06-07T03:40:46.937Z,14.40
2023-06-07T03:43:14.476Z,14.40
2023-06-07T03:45:42.049Z,14.23
2023-06-07T03:48:09.925Z,15.17
2023-06-07T03:50:37.593Z,16.37
2023-06-07T03:53:05.137Z,16.00
2023-06-07T03:55:32.683Z,15.43
2023-06-07T03:58:01.562Z,14.90
2023-06-07T04:00:29.101Z,15.13
2023-06-07T04:02:56.837Z,15.93
2023-06-07T04:05:26.543Z,16.50
2023-06-07T04:08:00.638Z,15.77
2023-06-07T04:10:28.406Z,15.40
2023-06-07T04:12:55.899Z,15.13
2023-06-07T04:15:25.235Z,15.53
2023-06-07T04:17:52.851Z,15.13
2023-06-07T04:20:20.787Z,16.23
2023-06-07T04:22:52.736Z,17.33
2023-06-07T04:25:22.774Z,16.63
2023-06-07T04:27:50.354Z,16.73
2023-06-07T04:30:19.178Z,17.50
2023-06-07T04:32:48.163Z,17.57
2023-06-07T04:35:15.830Z,17.67
2023-06-07T04:37:46.629Z,17.73
2023-06-07T04:40:15.104Z,18.40
2023-06-07T04:42:47.701Z,20.13
2023-06-07T04:45:15.438Z,19.43
2023-06-07T04:47:46.823Z,19.23
2023-06-07T04:50:17.482Z,19.37
2023-06-07T04:52:47.816Z,18.70
2023-06-07T04:55:15.396Z,17.50
2023-06-07T04:57:44.101Z,18.97
2023-06-07T05:00:15.295Z,18.33
2023-06-07T05:02:45.443Z,18.17
2023-06-07T05:05:14.253Z,19.40
2023-06-07T05:07:45.514Z,20.00
2023-06-07T05:10:13.133Z,19.23
2023-06-07T05:12:40.672Z,20.10
2023-06-07T05:15:09.254Z,19.20
2023-06-07T05:17:37.573Z,18.70
2023-06-07T05:20:11.283Z,19.60
2023-06-07T05:22:40.756Z,19.50
2023-06-07T05:25:11.457Z,20.17
2023-06-07T05:27:39.132Z,19.40
2023-06-07T05:30:08.490Z,19.93
2023-06-07T05:32:36.990Z,17.80
2023-06-07T05:35:05.620Z,19.33
2023-06-07T05:37:33.602Z,19.53
2023-06-07T05:40:01.145Z,18.43
2023-06-07T05:42:29.996Z,18.57
2023-06-07T05:44:57.582Z,19.00
2023-06-07T05:47:26.611Z,18.73
2023-06-07T05:49:55.056Z,17.80
2023-06-07T05:52:22.630Z,18.57
2023-06-07T05:54:51.158Z,18.30
2023-06-07T05:57:18.953Z,16.80
2023-06-07T05:59:47.869Z,17.87
2023-06-07T06:02:17.699Z,15.73
2023-06-07T06:04:45.353Z,16.17
2023-06-07T06:07:12.996Z,16.70
2023-06-07T06:09:42.362Z,17.50
2023-06-07T06:12:11.096Z,16.90
2023-06-07T06:14:38.737Z,16.50
2023-06-07T06:17:08.272Z,15.67
2023-06-07T06:19:36.096Z,16.27
2023-06-07T06:22:03.785Z,14.77
2023-06-07T06:24:31.349Z,15.90
2023-06-07T06:26:58.874Z,15.40
2023-06-07T06:29:26.490Z,15.63
2023-06-07T06:31:54.583Z,15.87
2023-06-07T06:34:24.187Z,15.87
2023-06-07T06:36:52.189Z,15.47
2023-06-07T06:39:19.780Z,14.77
2023-06-07T06:41:47.474Z,15.90
2023-06-07T06:44:15.007Z,15.00
2023-06-07T06:46:42.676Z,14.93
2023-06-07T06:49:13.101Z,13.93
2023-06-07T06:51:45.543Z,15.13
2023-06-07T06:54:13.718Z,15.50
2023-06-07T06:56:41.575Z,15.90
2023-06-07T06:59:09.137Z,16.07
2023-06-07T07:01:47.853Z,15.07
2023-06-07T07:04:16.636Z,15.07
2023-06-07T07:06:45.846Z,15.13
2023-06-07T07:09:14.334Z,15.67
2023-06-07T07:11:42.134Z,15.77
2023-06-07T07:14:09.688Z,15.63
2023-06-07T07:16:39.141Z,16.03
2023-06-07T07:19:06.956Z,15.10
2023-06-07T07:21:34.484Z,15.57
2023-06-07T07:24:03.453Z,14.77
2023-06-07T07:26:31.012Z,14.40
2023-06-07T07:28:58.662Z,15.63
2023-06-07T07:31:26.274Z,15.53
2023-06-07T07:33:53.993Z,13.20
2023-06-07T07:36:22.573Z,13.23
2023-06-07T07:38:50.197Z,12.57
2023-06-07T07:41:19.421Z,12.53
2023-06-07T07:43:47.262Z,12.60
2023-06-07T07:46:15.228Z,12.60
2023-06-07T07:48:42.779Z,12.27
2023-06-07T07:51:10.499Z,11.80
2023-06-07T07:53:38.010Z,11.53
2023-06-07T07:56:06.019Z,11.90
2023-06-07T07:58:34.901Z,12.17
2023-06-07T08:01:02.640Z,10.77
2023-06-07T08:03:30.854Z,10.20
2023-06-07T08:05:58.682Z,10.17
2023-06-07T08:08:26.192Z,10.70
2023-06-07T08:10:53.950Z,9.47
2023-06-07T08:13:21.493Z,9.80
2023-06-07T08:15:50.452Z,10.27
2023-06-07T08:18:18.362Z,9.47
2023-06-07T08:20:46.331Z,10.00
2023-06-07T08:23:13.961Z,9.47
2023-06-07T08:25:41.709Z,9.80
2023-06-07T08:28:10.154Z,8.10
2023-06-07T08:30:37.725Z,8.93
2023-06-07T08:33:07.079Z,8.67
2023-06-07T08:35:34.640Z,7.70
2023-06-07T08:38:02.181Z,8.23
2023-06-07T08:40:31.269Z,8.97
2023-06-07T08:42:58.791Z,7.50
2023-06-07T08:45:26.413Z,8.20
2023-06-07T08:47:55.886Z,7.43
2023-06-07T08:50:25.570Z,7.80
2023-06-07T08:52:55.871Z,6.60
2023-06-07T08:55:23.570Z,7.57
2023-06-07T08:57:53.594Z,6.87
2023-06-07T09:00:23.652Z,7.13
2023-06-07T09:02:53.813Z,7.17
2023-06-07T09:05:21.772Z,6.70
2023-06-07T09:07:50.949Z,8.40
2023-06-07T09:10:19.437Z,8.43
2023-06-07T09:12:47.628Z,7.77
2023-06-07T09:15:18.807Z,7.47
2023-06-07T09:17:57.197Z,7.50
2023-06-07T09:20:26.262Z,7.10
2023-06-07T09:23:04.168Z,6.80
2023-06-07T09:25:32.283Z,7.50
2023-06-07T09:28:00.060Z,6.70
2023-06-07T09:30:27.859Z,6.90
2023-06-07T09:32:55.881Z,6.80
2023-06-07T09:35:24.985Z,6.33
2023-06-07T09:37:54.005Z,6.20
2023-06-07T09:40:24.342Z,6.70
2023-06-07T09:42:59.384Z,5.90
2023-06-07T09:45:28.042Z,6.13
2023-06-07T09:48:05.857Z,6.50
2023-06-07T09:50:33.569Z,6.40
2023-06-07T09:53:02.546Z,6.90
2023-06-07T09:55:32.436Z,6.60
2023-06-07T09:58:00.980Z,6.93
2023-06-07T10:00:28.923Z,6.83
2023-06-07T10:03:06.687Z,6.50
2023-06-07T10:05:35.304Z,6.17
2023-06-07T10:08:03.208Z,6.77
2023-06-07T10:10:32.618Z,6.40
2023-06-07T10:13:00.941Z,6.43
2023-06-07T10:15:30.390Z,5.77
2023-06-07T10:18:02.451Z,6.57
2023-06-07T10:20:32.094Z,6.17
2023-06-07T10:23:04.651Z,6.10
2023-06-07T10:25:38.584Z,6.03
2023-06-07T10:28:12.535Z,5.63
2023-06-07T10:30:44.663Z,5.30
2023-06-07T10:33:12.558Z,5.80
2023-06-07T10:35:40.578Z,5.83
2023-06-07T10:38:09.398Z,5.57
2023-06-07T10:40:38.510Z,6.10
2023-06-07T10:43:06.423Z,5.00
2023-06-07T10:45:33.963Z,5.27
2023-06-07T10:48:35.952Z,5.20
2023-06-07T10:51:03.930Z,5.47
2023-06-07T10:53:50.818Z,5.43
2023-06-07T10:56:32.451Z,5.30
2023-06-07T10:59:20.897Z,5.97
2023-06-07T11:01:50.300Z,5.80
2023-06-07T11:04:52.191Z,5.10
2023-06-07T11:07:22.197Z,5.60
2023-06-07T11:09:50.873Z,4.50
2023-06-07T11:12:51.659Z,5.07
2023-06-07T11:15:26.694Z,4.70
2023-06-07T11:17:55.882Z,4.83
2023-06-07T11:20:53.868Z,5.00
2023-06-07T11:23:29.340Z,4.70
2023-06-07T11:26:00.088Z,4.80
2023-06-07T11:28:29.124Z,4.70
2023-06-07T11:30:58.934Z,5.23
2023-06-07T11:33:27.632Z,4.87
2023-06-07T11:35:57.261Z,4.50
2023-06-07T11:38:27.264Z,4.53
2023-06-07T11:40:55.233Z,5.37
2023-06-07T11:43:25.013Z,4.83
2023-06-07T11:45:54.101Z,4.93
2023-06-07T11:48:23.296Z,4.97
2023-06-07T11:50:50.986Z,4.57
2023-06-07T11:53:18.495Z,5.10
2023-06-07T11:55:47.091Z,4.57
2023-06-07T11:58:14.934Z,5.40
2023-06-07T12:00:44.852Z,4.70
2023-06-07T12:03:13.933Z,5.10
2023-06-07T12:05:44.571Z,4.27
2023-06-07T12:08:14.696Z,4.93
2023-06-07T12:10:42.267Z,5.07
2023-06-07T12:13:12.099Z,5.37
2023-06-07T12:15:43.531Z,4.77
2023-06-07T12:18:15.143Z,4.83
2023-06-07T12:20:44.515Z,4.60
2023-06-07T12:23:13.180Z,4.80
2023-06-07T12:25:42.726Z,5.27
2023-06-07T12:28:13.176Z,4.87
2023-06-07T12:30:42.608Z,4.70
2023-06-07T12:33:14.423Z,4.87
2023-06-07T12:35:48.706Z,5.20
2023-06-07T12:38:16.586Z,4.73
2023-06-07T12:40:44.194Z,4.73
2023-06-07T12:43:11.773Z,4.47
2023-06-07T12:45:39.445Z,4.47
2023-06-07T12:48:07.452Z,4.93
2023-06-07T12:50:35.155Z,4.20
2023-06-07T12:53:04.115Z,4.90
2023-06-07T12:55:31.867Z,4.03
2023-06-07T12:58:00.367Z,4.40
2023-06-07T13:00:28.093Z,4.13
2023-06-07T13:02:55.755Z,4.10
2023-06-07T13:05:23.564Z,4.00
2023-06-07T13:07:51.666Z,4.22
2023-06-07T13:10:20.763Z,3.78
2023-06-07T13:12:48.539Z,3.92
2023-06-07T13:15:16.095Z,3.92
2023-06-07T13:17:43.980Z,4.00
2023-06-07T13:20:12.501Z,4.28
2023-06-07T13:22:40.051Z,4.55
2023-06-07T13:25:08.760Z,3.80
2023-06-07T13:27:38.317Z,4.18
2023-06-07T13:30:09.211Z,3.72
2023-06-07T13:32:36.928Z,4.13
2023-06-07T13:35:04.665Z,4.10
2023-06-07T13:37:32.229Z,4.40
2023-06-07T13:39:59.994Z,4.10
2023-06-07T13:42:27.572Z,4.50
2023-06-07T13:44:56.461Z,4.03
2023-06-07T13:47:24.338Z,4.60
2023-06-07T13:49:53.774Z,4.20
2023-06-07T13:52:21.583Z,4.22
2023-06-07T13:54:49.446Z,4.28
2023-06-07T13:57:17.084Z,4.57
2023-06-07T13:59:45.804Z,4.10
2023-06-07T14:02:16.074Z,4.45
2023-06-07T14:04:44.277Z,4.15
2023-06-07T14:07:11.955Z,4.25
2023-06-07T14:09:39.490Z,4.20
2023-06-07T14:12:09.444Z,4.13
2023-06-07T14:14:37.080Z,4.18
2023-06-07T14:17:04.626Z,4.50
2023-06-07T14:19:33.528Z,4.50
2023-06-07T14:22:01.163Z,4.53
2023-06-07T14:24:28.721Z,4.40
2023-06-07T14:26:56.393Z,4.70
2023-06-07T14:29:23.985Z,4.77
2023-06-07T14:31:51.737Z,5.10
2023-06-07T14:34:19.257Z,5.30
2023-06-07T14:36:48.208Z,4.40
2023-06-07T14:39:15.778Z,3.88
2023-06-07T14:41:43.321Z,4.47
2023-06-07T14:44:10.925Z,3.95
2023-06-07T14:46:38.658Z,4.30
2023-06-07T14:49:06.232Z,3.88
2023-06-07T14:51:33.800Z,3.80
2023-06-07T14:54:06.044Z,3.88
2023-06-07T14:56:33.833Z,4.30
2023-06-07T14:59:01.586Z,3.70
2023-06-07T15:01:29.242Z,3.70
2023-06-07T15:03:56.831Z,3.85
2023-06-07T15:06:24.449Z,3.88
2023-06-07T15:08:54.696Z,3.85
2023-06-07T15:11:23.661Z,4.00
2023-06-07T15:13:51.659Z,4.50
2023-06-07T15:16:19.393Z,4.15
2023-06-07T15:18:46.945Z,4.18
2023-06-07T15:21:14.519Z,4.20
2023-06-07T15:23:42.307Z,4.13
2023-06-07T15:26:09.885Z,3.87
2023-06-07T15:28:38.732Z,4.70
2023-06-07T15:31:06.318Z,4.73
2023-06-07T15:33:34.277Z,4.23
2023-06-07T15:36:01.776Z,4.73
2023-06-07T15:38:31.315Z,4.00
2023-06-07T15:40:59.259Z,4.00
2023-06-07T15:43:26.880Z,4.43
2023-06-07T15:45:55.785Z,3.90
2023-06-07T15:48:24.285Z,3.87
2023-06-07T15:50:52.094Z,4.60
2023-06-07T15:53:19.963Z,4.63
2023-06-07T15:55:48.013Z,4.40
2023-06-07T15:58:15.544Z,4.33
2023-06-07T16:00:47.257Z,4.80
2023-06-07T16:03:16.612Z,4.60
2023-06-07T16:05:44.498Z,4.20
2023-06-07T16:08:14.310Z,4.33
2023-06-07T16:10:42.452Z,3.97
2023-06-07T16:13:10.128Z,4.47
2023-06-07T16:15:37.976Z,4.43
2023-06-07T16:18:06.039Z,4.30
2023-06-07T16:20:34.999Z,4.40
2023-06-07T16:23:02.620Z,4.60
2023-06-07T16:25:30.235Z,4.50
2023-06-07T16:27:57.799Z,4.67
2023-06-07T16:30:26.551Z,4.63
2023-06-07T16:32:55.071Z,5.00
2023-06-07T16:35:23.001Z,5.27
2023-06-07T16:37:51.912Z,5.53
2023-06-07T16:40:19.531Z,5.50
2023-06-07T16:42:47.209Z,6.07
2023-06-07T16:45:14.738Z,5.60
2023-06-07T16:47:42.373Z,5.37
2023-06-07T16:50:11.084Z,5.77
2023-06-07T16:52:38.609Z,6.00
2023-06-07T16:55:08.804Z,5.70
2023-06-07T16:57:38.824Z,6.43
2023-06-07T17:00:09.057Z,5.77
2023-06-07T17:02:36.866Z,5.97
2023-06-07T17:05:04.658Z,5.67
2023-06-07T17:07:32.189Z,5.93
2023-06-07T17:09:59.740Z,5.80
2023-06-07T17:12:28.577Z,5.57
2023-06-07T17:14:56.127Z,5.60
2023-06-07T17:17:23.706Z,5.83
2023-06-07T17:19:51.271Z,6.07
2023-06-07T17:22:18.880Z,6.13
2023-06-07T17:24:46.459Z,5.90
2023-06-07T17:27:14.425Z,6.37
2023-06-07T17:29:43.363Z,6.00
2023-06-07T17:32:11.300Z,5.60
2023-06-07T17:34:38.935Z,5.40
2023-06-07T17:37:07.413Z,5.40
2023-06-07T17:39:35.098Z,6.07
2023-06-07T17:42:02.613Z,5.90
2023-06-07T17:44:30.115Z,5.80
2023-06-07T17:46:59.010Z,5.60
2023-06-07T17:49:26.984Z,5.90
2023-06-07T17:51:56.751Z,5.73
2023-06-07T17:54:26.172Z,5.90
2023-06-07T17:56:53.676Z,5.47
2023-06-07T17:59:21.235Z,5.50
2023-06-07T18:01:52.844Z,6.00
2023-06-07T18:04:22.019Z,5.60
2023-06-07T18:06:49.589Z,5.10
2023-06-07T18:09:17.142Z,5.20
2023-06-07T18:11:44.667Z,5.60
2023-06-07T18:14:12.227Z,5.43
2023-06-07T18:16:39.866Z,5.13
2023-06-07T18:19:07.525Z,5.60
2023-06-07T18:21:37.818Z,5.13
2023-06-07T18:24:06.238Z,5.27
2023-06-07T18:26:33.814Z,5.17
2023-06-07T18:29:01.357Z,4.70
2023-06-07T18:31:28.989Z,4.43
2023-06-07T18:33:56.533Z,4.73
2023-06-07T18:36:24.392Z,5.47
2023-06-07T18:38:53.278Z,5.00
2023-06-07T18:41:20.843Z,5.10
2023-06-07T18:43:48.577Z,5.23
2023-06-07T18:46:17.769Z,5.13
2023-06-07T18:48:47.590Z,4.57
2023-06-07T18:51:15.148Z,5.13
2023-06-07T18:53:42.732Z,5.43
2023-06-07T18:56:11.829Z,5.33
2023-06-07T18:58:39.564Z,4.60
2023-06-07T19:01:08.993Z,5.47
2023-06-07T19:03:36.976Z,5.80
2023-06-07T19:06:05.052Z,5.50
2023-06-07T19:08:33.916Z,5.87
2023-06-07T19:11:02.079Z,5.90
2023-06-07T19:13:31.051Z,5.97
2023-06-07T19:15:58.617Z,6.40
2023-06-07T19:18:26.273Z,6.67
2023-06-07T19:20:53.793Z,6.30
2023-06-07T19:23:21.602Z,6.67
2023-06-07T19:25:49.113Z,6.40
2023-06-07T19:28:16.945Z,7.00
2023-06-07T19:30:46.160Z,6.50
2023-06-07T19:33:16.131Z,6.80
2023-06-07T19:35:43.721Z,6.67
2023-06-07T19:38:11.412Z,6.80
2023-06-07T19:40:38.905Z,5.97
2023-06-07T19:43:06.467Z,6.50
2023-06-07T19:45:33.989Z,6.70
2023-06-07T19:48:03.332Z,6.67
2023-06-07T19:50:30.917Z,6.87
2023-06-07T19:52:58.759Z,6.80
2023-06-07T19:55:26.751Z,6.70
2023-06-07T19:57:54.421Z,6.90
2023-06-07T20:00:22.445Z,6.67
2023-06-07T20:02:50.012Z,6.00
2023-06-07T20:05:19.023Z,6.80
2023-06-07T20:07:46.524Z,6.90
2023-06-07T20:10:14.797Z,6.80
2023-06-07T20:12:42.437Z,6.70
2023-06-07T20:15:11.262Z,7.40
2023-06-07T20:17:38.804Z,7.47
2023-06-07T20:20:07.869Z,7.27
2023-06-07T20:22:37.173Z,7.33
2023-06-07T20:25:05.101Z,7.57
2023-06-07T20:27:33.055Z,7.60
2023-06-07T20:30:01.242Z,8.00
2023-06-07T20:32:28.947Z,7.50
2023-06-07T20:34:58.602Z,7.47
2023-06-07T20:37:26.183Z,7.53
2023-06-07T20:39:55.066Z,7.20
2023-06-07T20:42:22.628Z,8.03
2023-06-07T20:44:53.686Z,7.63
2023-06-07T20:47:22.041Z,7.43
2023-06-07T20:49:49.706Z,7.37
2023-06-07T20:52:17.256Z,7.77
2023-06-07T20:54:44.887Z,7.40
2023-06-07T20:57:13.785Z,7.43
2023-06-07T20:59:45.925Z,8.23
2023-06-07T21:02:13.582Z,8.13
2023-06-07T21:04:41.153Z,7.40
2023-06-07T21:07:08.667Z,7.83
2023-06-07T21:09:36.210Z,7.17
2023-06-07T21:12:03.824Z,7.93
2023-06-07T21:14:32.700Z,7.23
2023-06-07T21:17:00.337Z,8.50
2023-06-07T21:19:27.859Z,8.50
2023-06-07T21:21:55.571Z,8.23
2023-06-07T21:24:23.266Z,8.83
2023-06-07T21:26:50.867Z,8.43
2023-06-07T21:29:18.379Z,8.63
2023-06-07T21:31:47.491Z,7.67
2023-06-07T21:34:15.220Z,7.33
2023-06-07T21:36:42.781Z,8.53
2023-06-07T21:39:10.294Z,8.10
2023-06-07T21:41:37.950Z,8.07
2023-06-07T21:44:05.632Z,7.90
2023-06-07T21:46:33.304Z,8.07
2023-06-07T21:49:02.275Z,9.07
2023-06-07T21:51:29.899Z,8.50
2023-06-07T21:53:57.440Z,8.50
2023-06-07T21:56:24.945Z,8.77
2023-06-07T21:58:52.468Z,8.27
2023-06-07T22:01:20.019Z,8.67
2023-06-07T22:03:47.606Z,8.33
2023-06-07T22:06:16.474Z,8.37
2023-06-07T22:08:44.049Z,8.93
2023-06-07T22:11:11.566Z,8.40
2023-06-07T22:13:40.562Z,8.57
2023-06-07T22:16:08.384Z,9.03
2023-06-07T22:18:36.479Z,8.73
2023-06-07T22:21:04.356Z,9.40
2023-06-07T22:23:33.452Z,8.50
2023-06-07T22:26:02.130Z,9.27
2023-06-07T22:28:30.863Z,9.70
2023-06-07T22:30:59.415Z,9.07
2023-06-07T22:33:27.030Z,8.90
2023-06-07T22:35:58.233Z,8.73
2023-06-07T22:38:26.160Z,8.30
2023-06-07T22:40:55.530Z,8.83
2023-06-07T22:43:23.075Z,9.20
2023-06-07T22:45:50.637Z,8.90
2023-06-07T22:48:19.917Z,9.27
2023-06-07T22:50:48.468Z,8.70
2023-06-07T22:53:17.240Z,9.13
2023-06-07T22:55:44.808Z,9.63
2023-06-07T22:58:13.648Z,9.47
2023-06-07T23:00:41.647Z,10.07
2023-06-07T23:03:09.368Z,9.00
2023-06-07T23:05:39.315Z,9.93
2023-06-07T23:08:08.039Z,10.33
2023-06-07T23:10:37.321Z,9.07
2023-06-07T23:13:09.292Z,9.70
2023-06-07T23:15:42.597Z,9.17
2023-06-07T23:18:11.300Z,9.30
2023-06-07T23:20:42.245Z,9.40
2023-06-07T23:23:11.144Z,8.97
2023-06-07T23:25:39.217Z,8.90
2023-06-07T23:28:06.943Z,8.53
2023-06-07T23:30:35.056Z,9.33
2023-06-07T23:33:04.566Z,10.10
2023-06-07T23:35:32.168Z,9.73
2023-06-07T23:38:00.753Z,9.97
2023-06-07T23:40:28.665Z,9.97
2023-06-07T23:42:57.783Z,9.73
2023-06-07T23:45:26.587Z,9.97
2023-06-07T23:47:54.222Z,9.97
2023-06-07T23:50:23.184Z,9.83
2023-06-07T23:52:51.007Z,8.57
2023-06-07T23:55:18.574Z,10.23
2023-06-07T23:57:46.587Z,10.53
